createdAt,value
2022-08-28T00:04:14.613Z,10.02
2022-08-28T00:09:18.949Z,12.20
2022-08-28T00:14:22.190Z,16.30
2022-08-28T00:19:25.580Z,12.20
2022-08-28T00:24:31.243Z,14.38
2022-08-28T00:29:34.050Z,16.70
2022-08-28T00:34:37.188Z,14.35
2022-08-28T00:39:41.399Z,14.05
2022-08-28T00:44:45.280Z,15.15
2022-08-28T00:49:52.792Z,12.60
2022-08-28T00:55:07.867Z,14.03
2022-08-28T01:00:14.017Z,15.20
2022-08-28T01:05:18.327Z,12.10
2022-08-28T01:10:25.816Z,12.27
2022-08-28T01:15:32.704Z,14.93
2022-08-28T01:20:37.841Z,17.38
2022-08-28T01:25:43.288Z,13.73
2022-08-28T01:30:48.869Z,14.25
2022-08-28T01:35:51.766Z,13.60
2022-08-28T01:40:57.800Z,12.82
2022-08-28T01:46:04.357Z,12.82
2022-08-28T01:51:07.278Z,15.13
2022-08-28T01:56:14.770Z,15.02
2022-08-28T02:01:21.083Z,14.80
2022-08-28T02:06:25.692Z,15.20
2022-08-28T02:11:30.651Z,14.73
2022-08-28T02:16:33.612Z,15.40
2022-08-28T02:21:36.503Z,14.40
2022-08-28T02:26:40.770Z,15.18
2022-08-28T02:31:43.586Z,12.05
2022-08-28T02:36:46.522Z,15.07
2022-08-28T02:41:50.712Z,13.80
2022-08-28T02:46:53.780Z,14.77
2022-08-28T02:51:57.647Z,11.57
2022-08-28T02:57:02.186Z,13.90
2022-08-28T03:02:07.208Z,12.32
2022-08-28T03:07:12.610Z,11.75
2022-08-28T03:12:17.061Z,18.58
2022-08-28T03:17:20.359Z,10.35
2022-08-28T03:22:43.855Z,10.45
2022-08-28T03:27:48.080Z,11.80
2022-08-28T03:32:51.388Z,16.85
2022-08-28T03:37:54.209Z,13.25
2022-08-28T03:42:58.557Z,14.02
2022-08-28T03:48:03.807Z,13.13
2022-08-28T03:53:07.258Z,15.07
2022-08-28T03:58:11.887Z,13.63
2022-08-28T04:03:22.186Z,12.90
2022-08-28T04:08:25.296Z,13.80
2022-08-28T04:13:30.403Z,13.75
2022-08-28T04:18:33.218Z,12.27
2022-08-28T04:23:36.600Z,14.13
2022-08-28T04:28:40.879Z,13.45
2022-08-28T04:33:43.756Z,15.30
2022-08-28T04:38:46.998Z,12.25
2022-08-28T04:43:52.775Z,13.52
2022-08-28T04:48:56.688Z,14.45
2022-08-28T04:54:00.117Z,13.35
2022-08-28T04:59:04.943Z,11.15
2022-08-28T05:04:07.998Z,10.18
2022-08-28T05:09:10.818Z,11.18
2022-08-28T05:14:16.510Z,11.50
2022-08-28T05:19:22.006Z,10.93
2022-08-28T05:24:25.336Z,13.02
2022-08-28T05:29:29.773Z,10.60
2022-08-28T05:34:32.756Z,11.63
2022-08-28T05:39:35.744Z,11.48
2022-08-28T05:44:40.009Z,8.00
2022-08-28T05:49:43.002Z,11.65
2022-08-28T05:54:45.868Z,12.95
2022-08-28T05:59:50.255Z,13.10
2022-08-28T06:04:53.714Z,10.85
2022-08-28T06:09:56.589Z,8.18
2022-08-28T06:15:00.912Z,12.77
2022-08-28T06:20:04.298Z,16.35
2022-08-28T06:25:09.312Z,9.30
2022-08-28T06:30:14.180Z,10.23
2022-08-28T06:35:17.304Z,15.60
2022-08-28T06:40:20.196Z,10.55
2022-08-28T06:45:24.570Z,10.85
2022-08-28T06:50:27.376Z,8.13
2022-08-28T06:55:30.181Z,9.55
2022-08-28T07:00:35.631Z,6.30
2022-08-28T07:05:38.537Z,5.65
2022-08-28T07:10:41.353Z,9.13
2022-08-28T07:15:45.930Z,7.25
2022-08-28T07:20:57.626Z,7.28
2022-08-28T07:26:03.508Z,7.25
2022-08-28T07:31:10.804Z,8.45
2022-08-28T07:36:16.077Z,7.18
2022-08-28T07:41:35.469Z,6.10
2022-08-28T07:46:41.003Z,7.93
2022-08-28T07:51:46.693Z,9.05
2022-08-28T07:56:49.916Z,7.47
2022-08-28T08:01:54.477Z,5.75
2022-08-28T08:06:58.280Z,8.30
2022-08-28T08:12:01.293Z,8.80
2022-08-28T08:17:07.364Z,10.00
2022-08-28T08:22:10.776Z,8.07
2022-08-28T08:27:13.633Z,6.82
2022-08-28T08:32:17.910Z,7.82
2022-08-28T08:37:20.710Z,9.02
2022-08-28T08:42:27.405Z,11.73
2022-08-28T08:47:39.339Z,8.20
2022-08-28T08:52:53.144Z,9.00
2022-08-28T08:58:06.076Z,8.68
2022-08-28T09:03:16.044Z,9.90
2022-08-28T09:08:27.600Z,18.08
2022-08-28T09:13:41.556Z,9.18
2022-08-28T09:18:48.429Z,8.48
2022-08-28T09:29:05.194Z,10.65
2022-08-28T09:34:23.832Z,7.72
2022-08-28T09:39:29.173Z,7.22
2022-08-28T09:44:32.514Z,9.10
2022-08-28T09:49:37.006Z,12.05
2022-08-28T09:54:44.720Z,10.65
2022-08-28T10:04:59.961Z,10.02
2022-08-28T10:10:22.148Z,10.05
2022-08-28T10:15:31.239Z,8.30
2022-08-28T10:20:47.912Z,7.15
2022-08-28T10:25:57.978Z,8.80
2022-08-28T10:31:08.243Z,8.10
2022-08-28T10:36:33.603Z,7.32
2022-08-28T10:41:44.266Z,9.50
2022-08-28T10:46:51.953Z,12.25
2022-08-28T10:52:02.310Z,8.35
2022-08-28T10:57:25.424Z,9.85
2022-08-28T11:02:31.032Z,9.88
2022-08-28T11:07:39.318Z,11.52
2022-08-28T11:12:44.318Z,12.15
2022-08-28T11:17:51.732Z,9.15
2022-08-28T11:23:00.576Z,10.80
2022-08-28T11:28:17.627Z,7.40
2022-08-28T11:33:39.945Z,9.93
2022-08-28T11:39:06.053Z,8.35
2022-08-28T11:44:28.222Z,7.35
2022-08-28T11:49:44.117Z,5.85
2022-08-28T11:54:59.992Z,7.53
2022-08-28T12:00:11.505Z,10.75
2022-08-28T12:05:45.901Z,6.18
2022-08-28T12:10:59.588Z,10.88
2022-08-28T12:16:07.552Z,8.77
2022-08-28T12:21:17.576Z,7.72
2022-08-28T12:26:26.166Z,9.27
2022-08-28T12:32:15.100Z,10.40
2022-08-28T12:37:27.320Z,10.63
2022-08-28T12:42:36.449Z,11.52
2022-08-28T12:47:44.562Z,11.15
2022-08-28T12:52:50.629Z,9.90
2022-08-28T12:57:55.511Z,12.30
2022-08-28T13:02:58.629Z,8.85
2022-08-28T13:08:05.315Z,9.73
2022-08-28T13:13:19.467Z,9.88
2022-08-28T13:18:46.305Z,7.50
2022-08-28T13:23:51.191Z,10.10
2022-08-28T13:28:55.942Z,7.95
2022-08-28T13:34:11.243Z,14.38
2022-08-28T13:39:16.307Z,9.38
2022-08-28T13:44:30.457Z,7.00
2022-08-28T13:49:34.115Z,7.65
2022-08-28T13:54:37.744Z,7.90
2022-08-28T13:59:45.823Z,9.40
2022-08-28T14:04:48.658Z,6.80
2022-08-28T14:09:55.981Z,11.05
2022-08-28T14:20:03.745Z,7.85
2022-08-28T14:25:09.386Z,7.05
2022-08-28T14:30:14.602Z,7.47
2022-08-28T14:35:17.459Z,7.38
2022-08-28T14:40:20.681Z,8.07
2022-08-28T14:45:24.899Z,6.45
2022-08-28T14:50:28.005Z,10.40
2022-08-28T14:55:30.963Z,7.13
2022-08-28T15:00:40.539Z,6.30
2022-08-28T15:05:43.857Z,5.25
2022-08-28T15:10:48.520Z,7.65
2022-08-28T15:16:02.350Z,10.38
2022-08-28T15:21:07.610Z,6.43
2022-08-28T15:26:15.152Z,7.72
2022-08-28T15:36:23.275Z,10.63
2022-08-28T15:41:26.332Z,9.45
2022-08-28T15:46:33.650Z,8.02
2022-08-28T15:51:36.944Z,8.23
2022-08-28T15:56:41.561Z,10.98
2022-08-28T16:01:45.914Z,9.50
2022-08-28T16:06:48.913Z,6.35
2022-08-28T16:11:59.636Z,10.27
2022-08-28T16:17:05.771Z,8.82
2022-08-28T16:22:15.925Z,8.45
2022-08-28T16:27:19.035Z,7.95
2022-08-28T16:32:23.853Z,8.40
2022-08-28T16:37:37.731Z,9.63
2022-08-28T16:42:51.434Z,7.18
2022-08-28T16:47:56.499Z,10.60
2022-08-28T16:53:03.532Z,11.00
2022-08-28T16:58:09.313Z,7.43
2022-08-28T17:03:14.140Z,8.75
2022-08-28T17:08:18.582Z,8.98
2022-08-28T17:13:21.508Z,8.95
2022-08-28T17:18:25.813Z,10.93
2022-08-28T17:23:28.661Z,8.70
2022-08-28T17:28:32.167Z,8.68
2022-08-28T17:33:37.064Z,9.35
2022-08-28T17:38:40.781Z,9.43
2022-08-28T17:43:44.267Z,11.18
2022-08-28T17:48:56.107Z,7.85
2022-08-28T17:53:59.406Z,10.63
2022-08-28T17:59:04.284Z,8.88
2022-08-28T18:04:08.948Z,8.40
2022-08-28T18:09:12.002Z,8.85
2022-08-28T18:14:14.781Z,6.13
2022-08-28T18:19:19.029Z,10.77
2022-08-28T18:24:22.078Z,8.98
2022-08-28T18:29:25.058Z,10.43
2022-08-28T18:34:30.014Z,10.75
2022-08-28T18:39:35.738Z,6.28
2022-08-28T18:44:38.634Z,5.65
2022-08-28T18:49:43.194Z,8.40
2022-08-28T18:54:46.124Z,6.35
2022-08-28T18:59:50.588Z,9.85
2022-08-28T19:04:54.912Z,6.55
2022-08-28T19:10:01.046Z,6.13
2022-08-28T19:15:04.385Z,7.30
2022-08-28T19:20:12.747Z,8.48
2022-08-28T19:25:27.408Z,9.55
2022-08-28T19:30:34.469Z,4.75
2022-08-28T19:35:38.987Z,8.50
2022-08-28T19:40:42.987Z,11.25
2022-08-28T19:45:46.800Z,7.25
2022-08-28T19:51:01.907Z,8.80
2022-08-28T19:56:06.137Z,10.55
2022-08-28T20:01:09.495Z,6.53
2022-08-28T20:06:13.860Z,10.77
2022-08-28T20:11:19.572Z,11.35
2022-08-28T20:16:22.599Z,8.65
2022-08-28T20:21:37.238Z,10.07
2022-08-28T20:26:41.593Z,9.40
2022-08-28T20:31:47.926Z,12.30
2022-08-28T20:36:52.587Z,12.45
2022-08-28T20:41:55.603Z,12.05
2022-08-28T20:46:58.761Z,10.65
2022-08-28T20:52:04.652Z,9.95
2022-08-28T20:57:10.008Z,11.55
2022-08-28T21:02:15.058Z,12.32
2022-08-28T21:07:21.793Z,11.55
2022-08-28T21:12:25.199Z,12.90
2022-08-28T21:17:30.157Z,10.70
2022-08-28T21:22:35.233Z,10.30
2022-08-28T21:27:39.283Z,10.50
2022-08-28T21:32:42.479Z,12.90
2022-08-28T21:37:49.080Z,14.25
2022-08-28T21:42:51.952Z,12.88
2022-08-28T21:47:54.861Z,11.75
2022-08-28T21:52:59.405Z,13.95
2022-08-28T21:58:02.251Z,9.65
2022-08-28T22:03:05.411Z,11.98
2022-08-28T22:08:09.612Z,13.75
2022-08-28T22:13:14.371Z,15.13
2022-08-28T22:18:17.623Z,14.07
2022-08-28T22:23:21.921Z,14.00
2022-08-28T22:28:24.799Z,12.40
2022-08-28T22:33:27.570Z,13.00
2022-08-28T22:38:32.168Z,11.15
2022-08-28T22:43:36.162Z,17.25
2022-08-28T22:48:39.280Z,20.38
2022-08-28T22:53:44.268Z,16.45
2022-08-28T22:58:47.119Z,24.17
2022-08-28T23:03:51.159Z,11.50
2022-08-28T23:08:55.402Z,16.60
2022-08-28T23:13:58.266Z,12.80
2022-08-28T23:19:08.933Z,19.83
2022-08-28T23:24:15.568Z,10.40
2022-08-28T23:29:18.473Z,16.40
2022-08-28T23:34:22.641Z,14.88
2022-08-28T23:39:27.813Z,16.95
2022-08-28T23:44:30.656Z,16.20
2022-08-28T23:49:33.964Z,15.65
2022-08-28T23:54:45.802Z,15.80
2022-08-28T23:59:48.949Z,12.48
